createdAt,value
2022-09-17T00:00:05.672Z,100656.53
2022-09-17T00:00:32.140Z,100663.56
2022-09-17T00:00:55.461Z,100664.38
2022-09-17T00:01:24.251Z,100657.41
2022-09-17T00:01:45.964Z,100666.09
2022-09-17T00:02:07.575Z,100661.91
2022-09-17T00:02:30.229Z,100658.22
2022-09-17T00:02:55.587Z,100654.66
2022-09-17T00:03:17.385Z,100654.81
2022-09-17T00:03:38.977Z,100661.75
2022-09-17T00:04:04.657Z,100660.09
2022-09-17T00:04:27.912Z,100656.53
2022-09-17T00:04:50.624Z,100662.06
2022-09-17T00:05:13.737Z,100655.84
2022-09-17T00:05:37.619Z,100663.81
2022-09-17T00:05:59.657Z,100668.19
2022-09-17T00:06:23.397Z,100662.94
2022-09-17T00:06:45.207Z,100656.66
2022-09-17T00:07:10.279Z,100662.84
2022-09-17T00:07:31.925Z,100654.66
2022-09-17T00:07:54.566Z,100656.47
2022-09-17T00:08:16.239Z,100655.53
2022-09-17T00:08:40.001Z,100659.16
2022-09-17T00:09:02.800Z,100656.47
2022-09-17T00:09:24.369Z,100656.41
2022-09-17T00:09:48.392Z,100662.56
2022-09-17T00:10:10.094Z,100662.56
2022-09-17T00:10:33.173Z,100658.06
2022-09-17T00:10:54.912Z,100659.88
2022-09-17T00:11:18.511Z,100661.63
2022-09-17T00:12:01.409Z,100655.34
2022-09-17T00:12:23.888Z,100660.50
2022-09-17T00:12:45.817Z,100651.72
2022-09-17T00:13:08.313Z,100653.34
2022-09-17T00:13:30.258Z,100659.56
2022-09-17T00:13:54.092Z,100657.28
2022-09-17T00:14:17.192Z,100640.66
2022-09-17T00:14:40.381Z,100662.69
2022-09-17T00:15:02.393Z,100656.47
2022-09-17T00:15:27.273Z,100652.31
2022-09-17T00:15:48.885Z,100642.25
2022-09-17T00:16:11.248Z,100650.56
2022-09-17T00:16:36.920Z,100653.25
2022-09-17T00:17:01.891Z,100658.53
2022-09-17T00:17:24.693Z,100650.44
2022-09-17T00:17:46.246Z,100658.53
2022-09-17T00:18:07.935Z,100651.38
2022-09-17T00:18:29.661Z,100648.75
2022-09-17T00:18:52.282Z,100652.25
2022-09-17T00:19:18.423Z,100651.31
2022-09-17T00:19:40.048Z,100649.47
2022-09-17T00:20:03.147Z,100647.75
2022-09-17T00:20:25.105Z,100649.38
2022-09-17T00:20:47.394Z,100652.06
2022-09-17T00:21:17.091Z,100651.94
2022-09-17T00:21:41.861Z,100650.19
2022-09-17T00:22:03.466Z,100658.00
2022-09-17T00:22:25.148Z,100653.53
2022-09-17T00:22:47.727Z,100648.94
2022-09-17T00:23:10.876Z,100653.41
2022-09-17T00:23:32.479Z,100649.19
2022-09-17T00:23:55.807Z,100644.78
2022-09-17T00:24:18.859Z,100649.25
2022-09-17T00:24:41.589Z,100642.16
2022-09-17T00:25:03.670Z,100650.84
2022-09-17T00:25:25.592Z,100654.41
2022-09-17T00:25:47.160Z,100655.16
2022-09-17T00:26:08.765Z,100645.72
2022-09-17T00:26:31.983Z,100652.66
2022-09-17T00:26:54.834Z,100652.59
2022-09-17T00:27:19.232Z,100649.75
2022-09-17T00:27:40.850Z,100652.34
2022-09-17T00:28:03.649Z,100654.91
2022-09-17T00:28:25.753Z,100650.50
2022-09-17T00:28:50.798Z,100646.81
2022-09-17T00:29:12.396Z,100645.94
2022-09-17T00:29:34.002Z,100644.06
2022-09-17T00:29:55.545Z,100651.22
2022-09-17T00:30:18.096Z,100651.13
2022-09-17T00:30:40.720Z,100652.88
2022-09-17T00:31:07.100Z,100657.22
2022-09-17T00:31:30.214Z,100652.78
2022-09-17T00:31:52.773Z,100654.66
2022-09-17T00:32:14.507Z,100648.63
2022-09-17T00:32:36.328Z,100656.81
2022-09-17T00:32:58.383Z,100649.75
2022-09-17T00:33:21.056Z,100658.53
2022-09-17T00:34:40.311Z,100661.94
2022-09-17T00:35:01.936Z,100664.59
2022-09-17T00:35:23.719Z,100660.13
2022-09-17T00:35:45.484Z,100656.59
2022-09-17T00:36:08.685Z,100652.00
2022-09-17T00:36:31.105Z,100660.88
2022-09-17T00:36:52.681Z,100661.00
2022-09-17T00:37:15.435Z,100659.09
2022-09-17T00:37:37.977Z,100660.13
2022-09-17T00:37:59.831Z,100654.16
2022-09-17T00:38:21.372Z,100657.59
2022-09-17T00:38:43.337Z,100654.16
2022-09-17T00:39:07.713Z,100655.47
2022-09-17T00:39:29.289Z,100653.41
2022-09-17T00:39:51.263Z,100651.63
2022-09-17T00:40:12.935Z,100646.38
2022-09-17T00:40:35.774Z,100654.03
2022-09-17T00:40:57.423Z,100651.38
2022-09-17T00:41:19.880Z,100652.25
2022-09-17T00:41:43.617Z,100652.97
2022-09-17T00:42:23.474Z,100649.50
2022-09-17T00:42:45.267Z,100647.69
2022-09-17T00:43:11.584Z,100644.84
2022-09-17T00:43:40.000Z,100654.84
2022-09-17T00:44:24.306Z,100646.88
2022-09-17T00:44:49.497Z,100647.00
2022-09-17T00:45:12.057Z,100646.75
2022-09-17T00:45:33.675Z,100647.50
2022-09-17T00:45:56.616Z,100651.06
2022-09-17T00:46:25.372Z,100644.94
2022-09-17T00:46:48.456Z,100653.91
2022-09-17T00:47:16.583Z,100646.66
2022-09-17T00:47:42.008Z,100638.47
2022-09-17T00:48:06.216Z,100653.91
2022-09-17T00:48:27.852Z,100650.28
2022-09-17T00:48:52.034Z,100652.00
2022-09-17T00:49:17.025Z,100648.38
2022-09-17T00:49:40.047Z,100655.41
2022-09-17T00:50:06.616Z,100653.66
2022-09-17T00:50:31.626Z,100654.44
2022-09-17T00:50:55.076Z,100650.13
2022-09-17T00:51:20.960Z,100650.13
2022-09-17T00:51:47.708Z,100653.66
2022-09-17T00:52:15.328Z,100659.09
2022-09-17T00:52:41.676Z,100653.72
2022-09-17T00:53:07.704Z,100646.66
2022-09-17T00:53:30.596Z,100654.59
2022-09-17T00:53:53.234Z,100657.22
2022-09-17T00:54:15.033Z,100646.75
2022-09-17T00:54:38.604Z,100647.44
2022-09-17T00:55:07.907Z,100647.63
2022-09-17T00:55:34.396Z,100656.28
2022-09-17T00:56:01.896Z,100650.81
2022-09-17T00:56:28.667Z,100658.75
2022-09-17T00:56:51.542Z,100652.63
2022-09-17T00:57:14.197Z,100654.44
2022-09-17T00:57:36.503Z,100649.06
2022-09-17T00:58:01.045Z,100651.69
2022-09-17T00:58:24.308Z,100659.88
2022-09-17T00:58:47.635Z,100651.75
2022-09-17T00:59:10.368Z,100654.53
2022-09-17T00:59:32.556Z,100650.03
2022-09-17T00:59:54.402Z,100654.53
2022-09-17T01:00:18.094Z,100655.41
2022-09-17T01:00:40.788Z,100632.75
2022-09-17T01:01:02.491Z,100653.09
2022-09-17T01:01:24.253Z,100645.41
2022-09-17T01:01:46.436Z,100653.28
2022-09-17T01:02:11.361Z,100652.16
2022-09-17T01:02:48.070Z,100652.16
2022-09-17T01:03:09.706Z,100655.66
2022-09-17T01:03:33.158Z,100656.41
2022-09-17T01:03:54.729Z,100652.88
2022-09-17T01:04:17.088Z,100650.13
2022-09-17T01:04:39.997Z,100646.56
2022-09-17T01:05:01.757Z,100649.19
2022-09-17T01:05:39.930Z,100656.28
2022-09-17T01:06:10.642Z,100660.66
2022-09-17T01:06:36.766Z,100650.38
2022-09-17T01:07:07.464Z,100654.59
2022-09-17T01:08:07.656Z,100648.56
2022-09-17T01:08:39.276Z,100651.00
2022-09-17T01:09:14.179Z,100650.28
2022-09-17T01:09:46.223Z,100662.00
2022-09-17T01:10:21.139Z,100659.16
2022-09-17T01:11:00.060Z,100659.09
2022-09-17T01:11:47.452Z,100648.69
2022-09-17T01:12:23.257Z,100663.50
2022-09-17T01:12:59.342Z,100655.66
2022-09-17T01:13:35.456Z,100660.81
2022-09-17T01:14:11.019Z,100667.91
2022-09-17T01:14:45.331Z,100654.22
2022-09-17T01:15:23.111Z,100658.53
2022-09-17T01:15:54.792Z,100670.28
2022-09-17T01:16:20.595Z,100666.56
2022-09-17T01:16:57.037Z,100660.25
2022-09-17T01:17:27.325Z,100669.09
2022-09-17T01:17:59.558Z,100673.50
2022-09-17T01:18:33.342Z,100663.03
2022-09-17T01:19:08.923Z,100661.31
2022-09-17T01:20:07.428Z,100671.06
2022-09-17T01:21:05.824Z,100662.00
2022-09-17T01:21:39.754Z,100649.91
2022-09-17T01:22:07.291Z,100669.84
2022-09-17T01:22:34.024Z,100670.59
2022-09-17T01:23:16.108Z,100669.84
2022-09-17T01:24:12.772Z,100667.19
2022-09-17T01:24:51.263Z,100665.53
2022-09-17T01:25:24.847Z,100663.75
2022-09-17T01:25:59.436Z,100675.31
2022-09-17T01:26:48.873Z,100665.38
2022-09-17T01:27:46.260Z,100666.16
2022-09-17T01:28:40.462Z,100667.28
2022-09-17T01:29:13.804Z,100658.47
2022-09-17T01:29:54.650Z,100666.00
2022-09-17T01:31:02.221Z,100664.19
2022-09-17T01:31:36.101Z,100658.47
2022-09-17T01:32:07.347Z,100669.97
2022-09-17T01:32:33.322Z,100667.13
2022-09-17T01:33:02.761Z,100665.63
2022-09-17T01:33:30.690Z,100666.25
2022-09-17T01:34:01.559Z,100668.06
2022-09-17T01:34:31.797Z,100665.31
2022-09-17T01:34:59.448Z,100661.22
2022-09-17T01:35:27.028Z,100665.38
2022-09-17T01:35:53.274Z,100666.16
2022-09-17T01:36:27.240Z,100662.69
2022-09-17T01:36:59.976Z,100664.44
2022-09-17T01:37:31.002Z,100673.25
2022-09-17T01:38:01.097Z,100671.34
2022-09-17T01:38:27.784Z,100666.97
2022-09-17T01:38:54.731Z,100663.31
2022-09-17T01:39:30.146Z,100664.19
2022-09-17T01:40:00.746Z,100669.78
2022-09-17T01:40:27.457Z,100668.78
2022-09-17T01:40:55.798Z,100669.78
2022-09-17T01:41:27.408Z,100661.84
2022-09-17T01:41:56.492Z,100667.19
2022-09-17T01:42:24.748Z,100663.03
2022-09-17T01:42:51.986Z,100669.22
2022-09-17T01:43:22.106Z,100670.81
2022-09-17T01:43:52.422Z,100669.97
2022-09-17T01:44:21.191Z,100678.84
2022-09-17T01:44:50.793Z,100674.38
2022-09-17T01:45:17.605Z,100671.69
2022-09-17T01:45:44.443Z,100662.25
2022-09-17T01:46:12.621Z,100671.84
2022-09-17T01:46:40.607Z,100671.69
2022-09-17T01:47:06.625Z,100678.75
2022-09-17T01:47:35.540Z,100676.00
2022-09-17T01:48:00.943Z,100670.81
2022-09-17T01:48:27.455Z,100673.19
2022-09-17T01:48:56.635Z,100671.91
2022-09-17T01:49:25.307Z,100680.91
2022-09-17T01:49:48.264Z,100685.16
2022-09-17T01:50:13.509Z,100683.34
2022-09-17T01:50:41.158Z,100680.66
2022-09-17T01:51:08.413Z,100679.88
2022-09-17T01:51:40.593Z,100684.97
2022-09-17T01:52:03.471Z,100678.00
2022-09-17T01:52:28.895Z,100674.44
2022-09-17T01:52:53.401Z,100696.63
2022-09-17T01:53:18.795Z,100689.47
2022-09-17T01:53:45.997Z,100666.09
2022-09-17T01:54:14.309Z,100689.31
2022-09-17T01:54:42.563Z,100683.97
2022-09-17T01:55:08.640Z,100691.06
2022-09-17T01:55:35.812Z,100685.72
2022-09-17T01:56:00.764Z,100691.81
2022-09-17T01:56:27.084Z,100697.09
2022-09-17T01:56:55.424Z,100694.34
2022-09-17T01:57:23.532Z,100692.63
2022-09-17T01:57:51.147Z,100695.53
2022-09-17T01:58:17.403Z,100692.06
2022-09-17T01:58:44.439Z,100683.09
2022-09-17T01:59:12.731Z,100693.88
2022-09-17T01:59:38.289Z,100691.13
2022-09-17T02:00:04.155Z,100694.75
2022-09-17T02:00:34.902Z,100685.06
2022-09-17T02:01:01.511Z,100692.22
2022-09-17T02:01:27.531Z,100696.63
2022-09-17T02:01:53.851Z,100685.28
2022-09-17T02:02:22.541Z,100696.72
2022-09-17T02:02:48.794Z,100703.81
2022-09-17T02:03:16.460Z,100698.53
2022-09-17T02:03:42.224Z,100700.09
2022-09-17T02:04:09.554Z,100694.75
2022-09-17T02:04:38.298Z,100698.28
2022-09-17T02:05:05.089Z,100692.94
2022-09-17T02:05:30.788Z,100699.22
2022-09-17T02:05:55.739Z,100688.53
2022-09-17T02:06:23.627Z,100662.63
2022-09-17T02:06:50.925Z,100696.41
2022-09-17T02:07:20.436Z,100694.66
2022-09-17T02:07:51.357Z,100689.47
2022-09-17T02:08:18.717Z,100694.66
2022-09-17T02:08:51.989Z,100691.88
2022-09-17T02:09:17.173Z,100666.78
2022-09-17T02:09:44.668Z,100690.09
2022-09-17T02:10:11.345Z,100691.81
2022-09-17T02:10:37.554Z,100702.47
2022-09-17T02:11:05.718Z,100691.75
2022-09-17T02:11:29.376Z,100690.72
2022-09-17T02:11:55.500Z,100696.06
2022-09-17T02:12:24.228Z,100696.06
2022-09-17T02:12:52.226Z,100697.97
2022-09-17T02:13:16.787Z,100691.81
2022-09-17T02:13:43.937Z,100698.97
2022-09-17T02:14:10.260Z,100706.25
2022-09-17T02:14:39.344Z,100695.53
2022-09-17T02:15:05.849Z,100698.09
2022-09-17T02:15:33.225Z,100694.44
2022-09-17T02:16:00.244Z,100705.13
2022-09-17T02:16:27.052Z,100706.75
2022-09-17T02:16:53.014Z,100692.44
2022-09-17T02:17:22.429Z,100692.44
2022-09-17T02:17:50.544Z,100688.28
2022-09-17T02:18:23.192Z,100690.88
2022-09-17T02:18:50.316Z,100686.47
2022-09-17T02:19:19.094Z,100681.28
2022-09-17T02:19:41.820Z,100694.44
2022-09-17T02:20:04.963Z,100695.38
2022-09-17T02:20:35.615Z,100691.81
2022-09-17T02:21:08.277Z,100688.59
2022-09-17T02:21:38.970Z,100696.41
2022-09-17T02:22:03.414Z,100693.25
2022-09-17T02:22:31.039Z,100696.53
2022-09-17T02:22:57.794Z,100692.13
2022-09-17T02:23:26.216Z,100691.13
2022-09-17T02:23:57.484Z,100703.63
2022-09-17T02:24:24.924Z,100698.97
2022-09-17T02:24:54.245Z,100693.94
2022-09-17T02:25:31.425Z,100695.53
2022-09-17T02:26:01.634Z,100689.22
2022-09-17T02:26:25.025Z,100701.59
2022-09-17T02:26:54.647Z,100695.19
2022-09-17T02:27:26.672Z,100697.03
2022-09-17T02:27:56.780Z,100697.88
2022-09-17T02:28:25.968Z,100692.63
2022-09-17T02:28:51.425Z,100697.03
2022-09-17T02:29:22.896Z,100692.69
2022-09-17T02:29:44.973Z,100692.00
2022-09-17T02:30:07.455Z,100691.81
2022-09-17T02:30:29.863Z,100693.63
2022-09-17T02:30:52.573Z,100695.44
2022-09-17T02:31:14.527Z,100694.66
2022-09-17T02:31:37.835Z,100698.22
2022-09-17T02:31:59.853Z,100688.44
2022-09-17T02:32:22.418Z,100700.78
2022-09-17T02:32:44.290Z,100693.88
2022-09-17T02:33:09.670Z,100692.94
2022-09-17T02:33:34.791Z,100692.06
2022-09-17T02:34:01.638Z,100694.66
2022-09-17T02:34:27.467Z,100688.44
2022-09-17T02:34:49.020Z,100695.59
2022-09-17T02:35:13.905Z,100690.56
2022-09-17T02:35:37.813Z,100690.50
2022-09-17T02:36:00.833Z,100694.97
2022-09-17T02:36:23.762Z,100694.97
2022-09-17T02:36:46.805Z,100697.59
2022-09-17T02:37:08.984Z,100693.88
2022-09-17T02:37:31.543Z,100696.53
2022-09-17T02:37:53.247Z,100693.88
2022-09-17T02:38:22.267Z,100695.59
2022-09-17T02:38:45.245Z,100703.56
2022-09-17T02:39:09.882Z,100694.75
2022-09-17T02:39:31.737Z,100699.22
2022-09-17T02:39:53.711Z,100694.81
2022-09-17T02:40:18.501Z,100700.34
2022-09-17T02:40:48.793Z,100698.59
2022-09-17T02:41:17.801Z,100693.56
2022-09-17T02:41:49.193Z,100685.28
2022-09-17T02:42:22.443Z,100688.44
2022-09-17T02:42:59.281Z,100701.69
2022-09-17T02:43:28.486Z,100696.41
2022-09-17T02:43:55.322Z,100693.78
2022-09-17T02:44:27.883Z,100699.06
2022-09-17T02:44:58.083Z,100704.44
2022-09-17T02:45:33.895Z,100697.25
2022-09-17T02:46:10.736Z,100698.06
2022-09-17T02:46:57.350Z,100698.91
2022-09-17T02:47:52.362Z,100688.13
2022-09-17T02:48:27.732Z,100697.03
2022-09-17T02:49:14.991Z,100698.75
2022-09-17T02:49:55.161Z,100688.81
2022-09-17T02:50:44.892Z,100696.22
2022-09-17T02:51:22.659Z,100703.25
2022-09-17T02:52:19.283Z,100697.72
2022-09-17T02:52:54.894Z,100696.84
2022-09-17T02:53:31.133Z,100698.59
2022-09-17T02:54:05.165Z,100696.84
2022-09-17T02:54:36.284Z,100699.69
2022-09-17T02:55:08.836Z,100694.09
2022-09-17T02:55:38.271Z,100675.06
2022-09-17T02:56:08.785Z,100699.41
2022-09-17T02:56:46.030Z,100700.34
2022-09-17T02:57:16.373Z,100674.13
2022-09-17T02:57:41.604Z,100698.47
2022-09-17T02:58:15.394Z,100703.63
2022-09-17T02:58:44.287Z,100700.16
2022-09-17T02:59:16.794Z,100700.16
2022-09-17T02:59:47.659Z,100682.72
2022-09-17T03:00:14.479Z,100700.97
2022-09-17T03:00:36.532Z,100702.75
2022-09-17T03:01:04.449Z,100697.59
2022-09-17T03:01:40.120Z,100693.94
2022-09-17T03:02:09.061Z,100701.97
2022-09-17T03:02:35.713Z,100703.94
2022-09-17T03:03:01.787Z,100702.06
2022-09-17T03:03:32.177Z,100701.19
2022-09-17T03:03:56.299Z,100691.59
2022-09-17T03:04:22.402Z,100702.06
2022-09-17T03:04:46.852Z,100695.78
2022-09-17T03:05:09.530Z,100702.06
2022-09-17T03:05:31.962Z,100691.44
2022-09-17T03:05:56.208Z,100676.38
2022-09-17T03:06:18.731Z,100688.13
2022-09-17T03:06:40.714Z,100693.47
2022-09-17T03:07:08.952Z,100697.97
2022-09-17T03:07:32.533Z,100705.13
2022-09-17T03:07:55.502Z,100697.03
2022-09-17T03:08:18.697Z,100703.25
2022-09-17T03:08:42.707Z,100698.75
2022-09-17T03:09:05.459Z,100709.38
2022-09-17T03:09:27.384Z,100702.38
2022-09-17T03:09:50.194Z,100705.22
2022-09-17T03:10:12.827Z,100699.06
2022-09-17T03:10:35.628Z,100701.59
2022-09-17T03:10:57.339Z,100704.34
2022-09-17T03:11:18.952Z,100706.00
2022-09-17T03:11:41.544Z,100684.22
2022-09-17T03:12:03.642Z,100702.56
2022-09-17T03:12:26.767Z,100709.72
2022-09-17T03:12:48.417Z,100698.91
2022-09-17T03:13:10.185Z,100697.97
2022-09-17T03:13:32.327Z,100685.75
2022-09-17T03:13:54.913Z,100693.56
2022-09-17T03:14:18.586Z,100686.50
2022-09-17T03:14:41.501Z,100695.41
2022-09-17T03:15:06.856Z,100693.56
2022-09-17T03:15:32.072Z,100694.41
2022-09-17T03:15:54.102Z,100687.38
2022-09-17T03:16:18.355Z,100694.34
2022-09-17T03:16:40.034Z,100691.69
2022-09-17T03:17:04.284Z,100695.22
2022-09-17T03:17:28.454Z,100697.03
2022-09-17T03:17:53.538Z,100695.16
2022-09-17T03:18:16.230Z,100696.84
2022-09-17T03:18:37.892Z,100696.84
2022-09-17T03:18:59.496Z,100700.34
2022-09-17T03:19:22.021Z,100694.97
2022-09-17T03:19:43.674Z,100693.25
2022-09-17T03:20:07.286Z,100687.38
2022-09-17T03:20:28.901Z,100696.78
2022-09-17T03:20:51.476Z,100695.16
2022-09-17T03:21:13.015Z,100696.09
2022-09-17T03:21:34.583Z,100691.50
2022-09-17T03:21:56.168Z,100692.47
2022-09-17T03:22:18.752Z,100697.72
2022-09-17T03:22:40.309Z,100693.25
2022-09-17T03:23:01.868Z,100698.59
2022-09-17T03:23:23.420Z,100694.91
2022-09-17T03:23:47.505Z,100691.50
2022-09-17T03:24:10.878Z,100694.09
2022-09-17T03:24:32.592Z,100702.31
2022-09-17T03:24:54.268Z,100701.34
2022-09-17T03:25:17.029Z,100697.72
2022-09-17T03:25:38.615Z,100690.25
2022-09-17T03:26:00.304Z,100703.25
2022-09-17T03:26:21.865Z,100696.00
2022-09-17T03:26:44.389Z,100694.34
2022-09-17T03:27:05.985Z,100702.06
2022-09-17T03:27:27.557Z,100690.75
2022-09-17T03:27:49.147Z,100703.88
2022-09-17T03:28:11.693Z,100700.34
2022-09-17T03:28:33.245Z,100698.59
2022-09-17T03:28:54.841Z,100697.03
2022-09-17T03:29:16.488Z,100694.19
2022-09-17T03:29:39.148Z,100701.34
2022-09-17T03:30:00.716Z,100699.53
2022-09-17T03:30:22.300Z,100702.22
2022-09-17T03:30:44.412Z,100697.03
2022-09-17T03:31:06.506Z,100703.00
2022-09-17T03:31:29.269Z,100700.34
2022-09-17T03:31:51.032Z,100707.56
2022-09-17T03:32:14.030Z,100698.66
2022-09-17T03:32:35.631Z,100698.59
2022-09-17T03:32:58.227Z,100694.09
2022-09-17T03:33:19.989Z,100700.34
2022-09-17T03:33:41.777Z,100702.06
2022-09-17T03:34:03.807Z,100698.75
2022-09-17T03:34:29.458Z,100697.03
2022-09-17T03:34:51.268Z,100705.84
2022-09-17T03:35:13.216Z,100700.34
2022-09-17T03:35:34.799Z,100699.47
2022-09-17T03:35:57.376Z,100702.06
2022-09-17T03:36:20.109Z,100692.53
2022-09-17T03:36:41.683Z,100703.06
2022-09-17T03:37:03.323Z,100704.88
2022-09-17T03:37:24.957Z,100697.72
2022-09-17T03:37:47.389Z,100706.69
2022-09-17T03:38:09.920Z,100708.59
2022-09-17T03:38:34.235Z,100703.50
2022-09-17T03:38:56.093Z,100706.09
2022-09-17T03:39:17.673Z,100697.34
2022-09-17T03:39:40.207Z,100699.06
2022-09-17T03:40:02.467Z,100702.56
2022-09-17T03:40:24.174Z,100708.66
2022-09-17T03:40:57.197Z,100702.31
2022-09-17T03:41:18.999Z,100706.88
2022-09-17T03:41:41.653Z,100706.00
2022-09-17T03:42:03.635Z,100701.81
2022-09-17T03:42:26.473Z,100701.00
2022-09-17T03:42:48.416Z,100705.22
2022-09-17T03:43:11.072Z,100700.63
2022-09-17T03:43:32.973Z,100697.19
2022-09-17T03:43:55.060Z,100706.00
2022-09-17T03:44:19.271Z,100697.59
2022-09-17T03:44:45.311Z,100703.63
2022-09-17T03:45:08.283Z,100708.91
2022-09-17T03:45:29.985Z,100700.75
2022-09-17T03:45:51.590Z,100708.66
2022-09-17T03:46:14.150Z,100711.34
2022-09-17T03:46:35.858Z,100708.53
2022-09-17T03:46:58.727Z,100705.13
2022-09-17T03:47:21.911Z,100703.25
2022-09-17T03:47:43.590Z,100709.38
2022-09-17T03:48:06.191Z,100712.91
2022-09-17T03:48:29.536Z,100711.03
2022-09-17T03:48:51.831Z,100710.97
2022-09-17T03:49:13.429Z,100714.50
2022-09-17T03:49:35.031Z,100714.41
2022-09-17T03:49:57.905Z,100701.34
2022-09-17T03:50:20.388Z,100703.00
2022-09-17T03:50:43.541Z,100711.97
2022-09-17T03:51:05.450Z,100704.75
2022-09-17T03:51:27.982Z,100708.38
2022-09-17T03:51:49.976Z,100705.06
2022-09-17T03:52:11.506Z,100704.00
2022-09-17T03:52:33.365Z,100710.16
2022-09-17T03:52:56.195Z,100703.25
2022-09-17T03:53:17.767Z,100704.00
2022-09-17T03:53:39.373Z,100709.47
2022-09-17T03:54:01.017Z,100706.00
2022-09-17T03:54:22.876Z,100706.00
2022-09-17T03:54:45.446Z,100706.78
2022-09-17T03:55:07.851Z,100707.72
2022-09-17T03:55:29.390Z,100707.72
2022-09-17T03:55:51.231Z,100705.13
2022-09-17T03:56:14.429Z,100706.94
2022-09-17T03:56:36.100Z,100708.59
2022-09-17T03:56:59.115Z,100710.25
2022-09-17T03:57:20.682Z,100710.16
2022-09-17T03:57:43.417Z,100712.78
2022-09-17T03:58:05.097Z,100702.94
2022-09-17T03:58:28.616Z,100698.59
2022-09-17T03:58:50.199Z,100708.13
2022-09-17T03:59:15.448Z,100705.44
2022-09-17T03:59:37.052Z,100712.47
2022-09-17T03:59:58.720Z,100698.97
2022-09-17T04:00:20.398Z,100711.41
2022-09-17T04:00:42.966Z,100701.66
2022-09-17T04:01:06.003Z,100711.41
2022-09-17T04:01:29.255Z,100713.16
2022-09-17T04:01:51.156Z,100710.41
2022-09-17T04:02:12.990Z,100709.38
2022-09-17T04:02:37.483Z,100709.44
2022-09-17T04:02:59.172Z,100704.09
2022-09-17T04:03:22.084Z,100710.25
2022-09-17T04:03:45.221Z,100708.50
2022-09-17T04:04:07.836Z,100705.91
2022-09-17T04:04:29.445Z,100705.06
2022-09-17T04:04:52.972Z,100709.53
2022-09-17T04:05:14.687Z,100709.63
2022-09-17T04:05:37.603Z,100707.75
2022-09-17T04:05:59.741Z,100712.28
2022-09-17T04:06:21.519Z,100692.31
2022-09-17T04:06:44.472Z,100708.13
2022-09-17T04:07:06.313Z,100715.28
2022-09-17T04:07:29.114Z,100714.28
2022-09-17T04:07:50.738Z,100715.97
2022-09-17T04:08:12.553Z,100718.88
2022-09-17T04:08:34.235Z,100713.47
2022-09-17T04:08:56.985Z,100717.94
2022-09-17T04:09:18.560Z,100712.66
2022-09-17T04:09:40.139Z,100716.16
2022-09-17T04:10:02.477Z,100713.72
2022-09-17T04:10:25.671Z,100703.25
2022-09-17T04:10:48.109Z,100718.25
2022-09-17T04:11:10.057Z,100716.38
2022-09-17T04:11:32.584Z,100718.25
2022-09-17T04:11:54.153Z,100712.91
2022-09-17T04:12:16.264Z,100713.72
2022-09-17T04:12:38.133Z,100717.25
2022-09-17T04:13:00.633Z,100719.88
2022-09-17T04:13:22.208Z,100720.88
2022-09-17T04:13:44.221Z,100728.81
2022-09-17T04:14:05.904Z,100718.13
2022-09-17T04:14:28.461Z,100716.38
2022-09-17T04:14:50.038Z,100725.22
2022-09-17T04:15:12.372Z,100719.88
2022-09-17T04:15:33.942Z,100722.38
2022-09-17T04:15:55.569Z,100720.56
2022-09-17T04:16:18.232Z,100723.16
2022-09-17T04:16:39.948Z,100724.88
2022-09-17T04:17:01.560Z,100715.28
2022-09-17T04:17:23.261Z,100723.31
2022-09-17T04:17:46.202Z,100720.63
2022-09-17T04:18:08.861Z,100700.75
2022-09-17T04:18:30.894Z,100723.16
2022-09-17T04:18:52.471Z,100722.19
2022-09-17T04:19:14.100Z,100723.94
2022-09-17T04:19:36.705Z,100715.03
2022-09-17T04:19:58.427Z,100719.44
2022-09-17T04:20:19.990Z,100714.03
2022-09-17T04:20:42.425Z,100729.91
2022-09-17T04:21:04.263Z,100719.28
2022-09-17T04:21:26.780Z,100726.53
2022-09-17T04:21:48.337Z,100723.78
2022-09-17T04:22:10.399Z,100725.75
2022-09-17T04:22:32.211Z,100723.16
2022-09-17T04:22:54.568Z,100715.34
2022-09-17T04:23:17.420Z,100722.19
2022-09-17T04:23:39.338Z,100720.38
2022-09-17T04:24:01.197Z,100717.09
2022-09-17T04:24:22.776Z,100724.09
2022-09-17T04:24:45.308Z,100719.63
2022-09-17T04:25:08.791Z,100722.13
2022-09-17T04:25:31.025Z,100723.00
2022-09-17T04:25:52.687Z,100706.47
2022-09-17T04:26:16.493Z,100723.94
2022-09-17T04:26:38.078Z,100728.53
2022-09-17T04:26:59.678Z,100721.44
2022-09-17T04:27:21.353Z,100723.31
2022-09-17T04:27:43.920Z,100719.69
2022-09-17T04:28:06.840Z,100722.38
2022-09-17T04:28:28.468Z,100724.19
2022-09-17T04:28:50.037Z,100719.75
2022-09-17T04:29:11.588Z,100717.88
2022-09-17T04:29:34.121Z,100724.88
2022-09-17T04:29:55.667Z,100727.47
2022-09-17T04:30:17.839Z,100714.34
2022-09-17T04:30:39.885Z,100725.66
2022-09-17T04:31:02.522Z,100729.47
2022-09-17T04:31:24.988Z,100723.16
2022-09-17T04:31:47.060Z,100733.00
2022-09-17T04:32:09.105Z,100729.34
2022-09-17T04:32:34.549Z,100737.47
2022-09-17T04:32:58.040Z,100724.19
2022-09-17T04:33:19.949Z,100730.22
2022-09-17T04:33:41.769Z,100723.16
2022-09-17T04:34:03.392Z,100723.25
2022-09-17T04:34:25.907Z,100725.75
2022-09-17T04:34:47.453Z,100722.13
2022-09-17T04:35:09.448Z,100728.28
2022-09-17T04:35:31.004Z,100728.19
2022-09-17T04:35:54.022Z,100726.63
2022-09-17T04:36:15.834Z,100728.19
2022-09-17T04:36:38.863Z,100730.97
2022-09-17T04:37:00.485Z,100728.28
2022-09-17T04:37:25.608Z,100724.63
2022-09-17T04:37:53.323Z,100730.22
2022-09-17T04:38:18.421Z,100730.41
2022-09-17T04:38:41.005Z,100731.25
2022-09-17T04:39:02.586Z,100722.69
2022-09-17T04:39:24.345Z,100727.66
2022-09-17T04:39:46.019Z,100731.97
2022-09-17T04:40:09.296Z,100723.94
2022-09-17T04:40:36.276Z,100726.63
2022-09-17T04:40:57.946Z,100731.03
2022-09-17T04:41:19.629Z,100729.28
2022-09-17T04:41:41.169Z,100723.94
2022-09-17T04:42:02.733Z,100727.53
2022-09-17T04:42:25.409Z,100728.53
2022-09-17T04:42:49.431Z,100725.91
2022-09-17T04:43:11.575Z,100723.16
2022-09-17T04:43:33.098Z,100728.72
2022-09-17T04:43:55.760Z,100728.59
2022-09-17T04:44:17.530Z,100726.78
2022-09-17T04:44:39.080Z,100732.91
2022-09-17T04:45:00.633Z,100730.22
2022-09-17T04:45:22.349Z,100733.69
2022-09-17T04:45:47.004Z,100721.31
2022-09-17T04:46:08.645Z,100725.75
2022-09-17T04:46:31.722Z,100738.34
2022-09-17T04:46:54.324Z,100741.09
2022-09-17T04:47:15.927Z,100732.13
2022-09-17T04:47:39.620Z,100732.13
2022-09-17T04:48:02.855Z,100735.56
2022-09-17T04:48:25.729Z,100734.72
2022-09-17T04:48:47.292Z,100735.56
2022-09-17T04:49:08.906Z,100737.31
2022-09-17T04:49:35.284Z,100738.19
2022-09-17T04:49:56.868Z,100741.72
2022-09-17T04:50:19.487Z,100741.72
2022-09-17T04:50:41.037Z,100731.81
2022-09-17T04:51:02.645Z,100737.19
2022-09-17T04:51:24.296Z,100736.22